sensor_id;sensor_type;location;lat;lon;timestamp;temperature;humidity
1129;DHT22;553;51.038;7.216;2023-07-16T00:02:04;21.40;94.90
1129;DHT22;553;51.038;7.216;2023-07-16T00:04:32;21.50;94.70
1129;DHT22;553;51.038;7.216;2023-07-16T00:07:02;21.40;94.60
1129;DHT22;553;51.038;7.216;2023-07-16T00:09:29;21.30;94.80
1129;DHT22;553;51.038;7.216;2023-07-16T00:11:56;21.30;94.70
1129;DHT22;553;51.038;7.216;2023-07-16T00:14:23;21.30;94.80
1129;DHT22;553;51.038;7.216;2023-07-16T00:16:50;21.30;94.50
1129;DHT22;553;51.038;7.216;2023-07-16T00:19:17;21.20;95.00
1129;DHT22;553;51.038;7.216;2023-07-16T00:21:44;21.20;95.00
1129;DHT22;553;51.038;7.216;2023-07-16T00:24:11;21.30;95.30
1129;DHT22;553;51.038;7.216;2023-07-16T00:26:37;21.20;95.20
1129;DHT22;553;51.038;7.216;2023-07-16T00:29:04;21.20;95.20
1129;DHT22;553;51.038;7.216;2023-07-16T00:31:31;21.30;95.30
1129;DHT22;553;51.038;7.216;2023-07-16T00:33:58;21.20;95.10
1129;DHT22;553;51.038;7.216;2023-07-16T00:36:24;21.20;95.00
1129;DHT22;553;51.038;7.216;2023-07-16T00:38:51;21.20;95.20
1129;DHT22;553;51.038;7.216;2023-07-16T00:41:18;21.10;94.80
1129;DHT22;553;51.038;7.216;2023-07-16T00:43:45;21.20;94.90
1129;DHT22;553;51.038;7.216;2023-07-16T00:46:12;21.20;94.70
1129;DHT22;553;51.038;7.216;2023-07-16T00:48:41;21.10;95.00
1129;DHT22;553;51.038;7.216;2023-07-16T00:51:08;21.10;94.90
1129;DHT22;553;51.038;7.216;2023-07-16T00:53:35;21.10;95.00
1129;DHT22;553;51.038;7.216;2023-07-16T00:56:02;21.10;94.60
1129;DHT22;553;51.038;7.216;2023-07-16T00:58:29;21.10;94.80
1129;DHT22;553;51.038;7.216;2023-07-16T01:00:56;21.10;94.80
1129;DHT22;553;51.038;7.216;2023-07-16T01:03:23;21.00;94.70
1129;DHT22;553;51.038;7.216;2023-07-16T01:08:40;20.90;94.80
1129;DHT22;553;51.038;7.216;2023-07-16T01:11:07;20.90;94.90
1129;DHT22;553;51.038;7.216;2023-07-16T01:13:35;20.90;95.30
1129;DHT22;553;51.038;7.216;2023-07-16T01:16:02;20.90;95.00
1129;DHT22;553;51.038;7.216;2023-07-16T01:18:29;20.90;95.10
1129;DHT22;553;51.038;7.216;2023-07-16T01:20:56;20.90;94.70
1129;DHT22;553;51.038;7.216;2023-07-16T01:29:28;20.70;95.00
1129;DHT22;553;51.038;7.216;2023-07-16T01:31:56;20.60;95.30
1129;DHT22;553;51.038;7.216;2023-07-16T01:34:26;20.70;95.50
1129;DHT22;553;51.038;7.216;2023-07-16T01:36:55;20.60;95.30
1129;DHT22;553;51.038;7.216;2023-07-16T01:39:22;20.60;95.50
1129;DHT22;553;51.038;7.216;2023-07-16T01:41:49;20.50;95.80
1129;DHT22;553;51.038;7.216;2023-07-16T01:44:16;20.50;95.80
1129;DHT22;553;51.038;7.216;2023-07-16T01:46:49;20.40;96.30
1129;DHT22;553;51.038;7.216;2023-07-16T01:49:20;20.40;96.40
1129;DHT22;553;51.038;7.216;2023-07-16T01:51:47;20.40;95.90
1129;DHT22;553;51.038;7.216;2023-07-16T01:54:13;20.30;96.40
1129;DHT22;553;51.038;7.216;2023-07-16T01:56:40;20.30;96.50
1129;DHT22;553;51.038;7.216;2023-07-16T01:59:07;20.30;97.00
1129;DHT22;553;51.038;7.216;2023-07-16T02:01:34;20.30;96.80
1129;DHT22;553;51.038;7.216;2023-07-16T02:04:00;20.20;96.80
1129;DHT22;553;51.038;7.216;2023-07-16T02:06:27;20.00;97.30
1129;DHT22;553;51.038;7.216;2023-07-16T02:08:54;19.90;97.80
1129;DHT22;553;51.038;7.216;2023-07-16T02:11:21;19.90;97.90
1129;DHT22;553;51.038;7.216;2023-07-16T02:13:47;19.80;98.00
1129;DHT22;553;51.038;7.216;2023-07-16T02:16:14;19.70;98.50
1129;DHT22;553;51.038;7.216;2023-07-16T02:18:41;19.70;98.30
1129;DHT22;553;51.038;7.216;2023-07-16T02:21:08;19.70;98.70
1129;DHT22;553;51.038;7.216;2023-07-16T02:23:35;19.70;98.80
1129;DHT22;553;51.038;7.216;2023-07-16T02:26:02;19.60;98.90
1129;DHT22;553;51.038;7.216;2023-07-16T02:28:29;19.60;98.80
1129;DHT22;553;51.038;7.216;2023-07-16T02:30:56;19.60;98.60
1129;DHT22;553;51.038;7.216;2023-07-16T02:33:22;19.50;98.90
1129;DHT22;553;51.038;7.216;2023-07-16T02:35:50;19.30;99.50
1129;DHT22;553;51.038;7.216;2023-07-16T02:38:18;19.30;99.50
1129;DHT22;553;51.038;7.216;2023-07-16T02:40:46;19.40;99.30
1129;DHT22;553;51.038;7.216;2023-07-16T02:43:13;19.40;99.20
1129;DHT22;553;51.038;7.216;2023-07-16T02:45:40;19.30;99.30
1129;DHT22;553;51.038;7.216;2023-07-16T02:48:07;19.20;99.50
1129;DHT22;553;51.038;7.216;2023-07-16T02:50:35;19.20;99.40
1129;DHT22;553;51.038;7.216;2023-07-16T02:53:05;19.20;99.80
1129;DHT22;553;51.038;7.216;2023-07-16T02:55:32;19.10;99.70
1129;DHT22;553;51.038;7.216;2023-07-16T02:57:59;19.10;99.90
1129;DHT22;553;51.038;7.216;2023-07-16T03:00:29;19.00;99.90
1129;DHT22;553;51.038;7.216;2023-07-16T03:02:56;19.10;99.70
1129;DHT22;553;51.038;7.216;2023-07-16T03:05:23;19.10;99.90
1129;DHT22;553;51.038;7.216;2023-07-16T03:07:50;19.00;99.50
1129;DHT22;553;51.038;7.216;2023-07-16T03:10:17;19.00;99.90
1129;DHT22;553;51.038;7.216;2023-07-16T03:12:43;18.90;99.80
1129;DHT22;553;51.038;7.216;2023-07-16T03:15:10;18.80;99.90
1129;DHT22;553;51.038;7.216;2023-07-16T03:17:37;18.80;99.90
1129;DHT22;553;51.038;7.216;2023-07-16T03:20:04;18.70;99.90
1129;DHT22;553;51.038;7.216;2023-07-16T03:22:32;18.80;99.90
1129;DHT22;553;51.038;7.216;2023-07-16T03:24:59;18.80;99.90
1129;DHT22;553;51.038;7.216;2023-07-16T03:27:26;18.60;99.90
1129;DHT22;553;51.038;7.216;2023-07-16T03:29:57;18.50;99.90
1129;DHT22;553;51.038;7.216;2023-07-16T03:32:24;18.60;99.90
1129;DHT22;553;51.038;7.216;2023-07-16T03:35:04;18.50;99.90
1129;DHT22;553;51.038;7.216;2023-07-16T03:37:30;18.50;99.90
1129;DHT22;553;51.038;7.216;2023-07-16T03:40:12;18.60;99.90
1129;DHT22;553;51.038;7.216;2023-07-16T03:42:42;18.50;99.90
1129;DHT22;553;51.038;7.216;2023-07-16T03:45:12;18.50;99.90
1129;DHT22;553;51.038;7.216;2023-07-16T03:47:39;18.50;99.90
1129;DHT22;553;51.038;7.216;2023-07-16T03:50:07;18.50;99.90
1129;DHT22;553;51.038;7.216;2023-07-16T03:52:34;18.50;99.90
1129;DHT22;553;51.038;7.216;2023-07-16T03:55:00;18.50;99.90
1129;DHT22;553;51.038;7.216;2023-07-16T03:57:28;18.50;99.80
1129;DHT22;553;51.038;7.216;2023-07-16T03:59:55;18.50;99.90
1129;DHT22;553;51.038;7.216;2023-07-16T04:02:24;18.50;99.90
1129;DHT22;553;51.038;7.216;2023-07-16T04:04:50;18.30;99.90
1129;DHT22;553;51.038;7.216;2023-07-16T04:07:18;18.40;99.90
1129;DHT22;553;51.038;7.216;2023-07-16T04:09:44;18.30;99.90
1129;DHT22;553;51.038;7.216;2023-07-16T04:12:11;18.40;99.90
1129;DHT22;553;51.038;7.216;2023-07-16T04:14:38;18.30;99.90
1129;DHT22;553;51.038;7.216;2023-07-16T04:17:05;18.40;99.50
1129;DHT22;553;51.038;7.216;2023-07-16T04:19:32;18.40;99.30
1129;DHT22;553;51.038;7.216;2023-07-16T04:21:58;18.40;99.50
1129;DHT22;553;51.038;7.216;2023-07-16T04:24:25;18.40;99.60
1129;DHT22;553;51.038;7.216;2023-07-16T04:26:53;18.30;99.60
1129;DHT22;553;51.038;7.216;2023-07-16T04:29:21;18.40;99.20
1129;DHT22;553;51.038;7.216;2023-07-16T04:31:48;18.40;99.30
1129;DHT22;553;51.038;7.216;2023-07-16T04:34:14;18.30;99.80
1129;DHT22;553;51.038;7.216;2023-07-16T04:36:42;18.30;99.90
1129;DHT22;553;51.038;7.216;2023-07-16T04:39:09;18.30;99.30
1129;DHT22;553;51.038;7.216;2023-07-16T04:41:36;18.40;99.10
1129;DHT22;553;51.038;7.216;2023-07-16T04:44:04;18.40;99.40
1129;DHT22;553;51.038;7.216;2023-07-16T04:46:30;18.40;99.10
1129;DHT22;553;51.038;7.216;2023-07-16T04:48:57;18.50;99.00
1129;DHT22;553;51.038;7.216;2023-07-16T04:51:24;18.50;99.10
1129;DHT22;553;51.038;7.216;2023-07-16T04:53:51;18.50;99.00
1129;DHT22;553;51.038;7.216;2023-07-16T04:56:18;18.50;98.80
1129;DHT22;553;51.038;7.216;2023-07-16T04:58:45;18.50;98.80
1129;DHT22;553;51.038;7.216;2023-07-16T05:01:13;18.60;99.00
1129;DHT22;553;51.038;7.216;2023-07-16T05:03:40;18.50;98.90
1129;DHT22;553;51.038;7.216;2023-07-16T05:06:07;18.50;98.60
1129;DHT22;553;51.038;7.216;2023-07-16T05:08:33;18.60;98.70
1129;DHT22;553;51.038;7.216;2023-07-16T05:11:01;18.60;98.30
1129;DHT22;553;51.038;7.216;2023-07-16T05:13:28;18.60;98.10
1129;DHT22;553;51.038;7.216;2023-07-16T05:15:55;18.60;98.40
1129;DHT22;553;51.038;7.216;2023-07-16T05:18:21;18.60;97.00
1129;DHT22;553;51.038;7.216;2023-07-16T05:20:49;18.70;97.40
1129;DHT22;553;51.038;7.216;2023-07-16T05:23:16;18.80;96.60
1129;DHT22;553;51.038;7.216;2023-07-16T05:25:49;18.90;96.70
1129;DHT22;553;51.038;7.216;2023-07-16T05:28:19;18.90;96.10
1129;DHT22;553;51.038;7.216;2023-07-16T05:30:46;19.00;96.10
1129;DHT22;553;51.038;7.216;2023-07-16T05:33:12;19.10;96.00
1129;DHT22;553;51.038;7.216;2023-07-16T05:35:40;19.30;95.30
1129;DHT22;553;51.038;7.216;2023-07-16T05:38:06;19.50;94.80
1129;DHT22;553;51.038;7.216;2023-07-16T05:40:33;19.60;94.00
1129;DHT22;553;51.038;7.216;2023-07-16T05:43:00;19.80;93.90
1129;DHT22;553;51.038;7.216;2023-07-16T05:45:27;19.90;93.40
1129;DHT22;553;51.038;7.216;2023-07-16T05:47:54;20.00;92.90
1129;DHT22;553;51.038;7.216;2023-07-16T05:50:21;20.20;92.70
1129;DHT22;553;51.038;7.216;2023-07-16T05:52:47;20.30;91.30
1129;DHT22;553;51.038;7.216;2023-07-16T05:55:15;20.50;91.00
1129;DHT22;553;51.038;7.216;2023-07-16T05:57:42;20.60;89.70
1129;DHT22;553;51.038;7.216;2023-07-16T06:00:09;20.70;90.10
1129;DHT22;553;51.038;7.216;2023-07-16T06:02:42;20.80;89.30
1129;DHT22;553;51.038;7.216;2023-07-16T06:05:09;21.10;88.60
1129;DHT22;553;51.038;7.216;2023-07-16T06:07:36;21.10;88.30
1129;DHT22;553;51.038;7.216;2023-07-16T06:10:02;21.20;87.20
1129;DHT22;553;51.038;7.216;2023-07-16T06:12:29;21.30;87.30
1129;DHT22;553;51.038;7.216;2023-07-16T06:14:56;21.30;86.30
1129;DHT22;553;51.038;7.216;2023-07-16T06:17:23;21.30;84.90
1129;DHT22;553;51.038;7.216;2023-07-16T06:19:49;21.00;85.50
1129;DHT22;553;51.038;7.216;2023-07-16T06:22:18;21.10;86.20
1129;DHT22;553;51.038;7.216;2023-07-16T06:24:45;21.30;86.00
1129;DHT22;553;51.038;7.216;2023-07-16T06:27:11;21.40;83.00
1129;DHT22;553;51.038;7.216;2023-07-16T06:29:38;21.40;84.90
1129;DHT22;553;51.038;7.216;2023-07-16T06:32:05;21.70;83.40
1129;DHT22;553;51.038;7.216;2023-07-16T06:34:32;21.90;84.00
1129;DHT22;553;51.038;7.216;2023-07-16T06:36:59;22.00;80.70
1129;DHT22;553;51.038;7.216;2023-07-16T06:39:26;22.00;80.80
1129;DHT22;553;51.038;7.216;2023-07-16T06:41:52;22.20;79.70
1129;DHT22;553;51.038;7.216;2023-07-16T06:44:22;22.20;79.70
1129;DHT22;553;51.038;7.216;2023-07-16T06:46:49;22.00;79.80
1129;DHT22;553;51.038;7.216;2023-07-16T06:49:15;22.10;80.10
1129;DHT22;553;51.038;7.216;2023-07-16T06:51:42;22.10;80.40
1129;DHT22;553;51.038;7.216;2023-07-16T06:54:09;22.20;80.40
1129;DHT22;553;51.038;7.216;2023-07-16T06:56:36;22.00;80.20
1129;DHT22;553;51.038;7.216;2023-07-16T06:59:03;21.90;79.90
1129;DHT22;553;51.038;7.216;2023-07-16T07:01:29;21.60;80.10
1129;DHT22;553;51.038;7.216;2023-07-16T07:03:56;21.60;80.70
1129;DHT22;553;51.038;7.216;2023-07-16T07:06:23;21.80;80.00
1129;DHT22;553;51.038;7.216;2023-07-16T07:08:51;22.00;80.40
1129;DHT22;553;51.038;7.216;2023-07-16T07:11:18;22.10;79.30
1129;DHT22;553;51.038;7.216;2023-07-16T07:13:45;22.20;80.10
1129;DHT22;553;51.038;7.216;2023-07-16T07:16:12;22.50;80.00
1129;DHT22;553;51.038;7.216;2023-07-16T07:18:39;22.50;78.90
1129;DHT22;553;51.038;7.216;2023-07-16T07:21:06;22.70;78.70
1129;DHT22;553;51.038;7.216;2023-07-16T07:23:33;22.90;77.70
1129;DHT22;553;51.038;7.216;2023-07-16T07:26:00;22.70;78.10
1129;DHT22;553;51.038;7.216;2023-07-16T07:28:27;22.80;78.50
1129;DHT22;553;51.038;7.216;2023-07-16T07:30:54;23.10;78.50
1129;DHT22;553;51.038;7.216;2023-07-16T07:33:21;23.20;79.10
1129;DHT22;553;51.038;7.216;2023-07-16T07:35:48;23.00;78.50
1129;DHT22;553;51.038;7.216;2023-07-16T07:38:15;23.10;77.80
1129;DHT22;553;51.038;7.216;2023-07-16T07:40:45;23.30;77.90
1129;DHT22;553;51.038;7.216;2023-07-16T07:43:11;23.10;77.30
1129;DHT22;553;51.038;7.216;2023-07-16T07:45:38;23.30;76.00
1129;DHT22;553;51.038;7.216;2023-07-16T07:48:05;23.20;74.90
1129;DHT22;553;51.038;7.216;2023-07-16T07:50:32;23.10;75.60
1129;DHT22;553;51.038;7.216;2023-07-16T07:52:59;23.00;76.00
1129;DHT22;553;51.038;7.216;2023-07-16T07:55:25;23.50;76.30
1129;DHT22;553;51.038;7.216;2023-07-16T07:57:52;23.40;74.40
1129;DHT22;553;51.038;7.216;2023-07-16T08:00:20;23.40;74.70
1129;DHT22;553;51.038;7.216;2023-07-16T08:02:47;23.40;75.10
1129;DHT22;553;51.038;7.216;2023-07-16T08:05:14;23.80;74.80
1129;DHT22;553;51.038;7.216;2023-07-16T08:07:41;23.90;72.40
1129;DHT22;553;51.038;7.216;2023-07-16T08:10:08;23.90;72.80
1129;DHT22;553;51.038;7.216;2023-07-16T08:12:35;24.10;72.40
1129;DHT22;553;51.038;7.216;2023-07-16T08:15:02;23.90;72.50
1129;DHT22;553;51.038;7.216;2023-07-16T08:17:28;24.10;72.10
1129;DHT22;553;51.038;7.216;2023-07-16T08:19:55;24.00;72.60
1129;DHT22;553;51.038;7.216;2023-07-16T08:22:22;23.90;71.40
1129;DHT22;553;51.038;7.216;2023-07-16T08:24:51;23.90;73.80
1129;DHT22;553;51.038;7.216;2023-07-16T08:27:18;24.10;73.40
1129;DHT22;553;51.038;7.216;2023-07-16T08:29:46;24.20;71.30
1129;DHT22;553;51.038;7.216;2023-07-16T08:32:12;24.00;70.80
1129;DHT22;553;51.038;7.216;2023-07-16T08:34:39;24.10;71.90
1129;DHT22;553;51.038;7.216;2023-07-16T08:37:06;24.10;70.50
1129;DHT22;553;51.038;7.216;2023-07-16T08:39:33;23.60;71.60
1129;DHT22;553;51.038;7.216;2023-07-16T08:42:01;23.60;71.00
1129;DHT22;553;51.038;7.216;2023-07-16T08:44:29;23.60;71.60
1129;DHT22;553;51.038;7.216;2023-07-16T08:46:56;23.70;72.50
1129;DHT22;553;51.038;7.216;2023-07-16T08:49:23;23.60;71.00
1129;DHT22;553;51.038;7.216;2023-07-16T08:51:52;23.70;72.60
1129;DHT22;553;51.038;7.216;2023-07-16T08:54:22;23.80;71.80
1129;DHT22;553;51.038;7.216;2023-07-16T08:56:49;24.00;70.70
1129;DHT22;553;51.038;7.216;2023-07-16T08:59:17;24.20;69.50
1129;DHT22;553;51.038;7.216;2023-07-16T09:01:47;24.20;70.60
1129;DHT22;553;51.038;7.216;2023-07-16T09:04:15;24.20;70.50
1129;DHT22;553;51.038;7.216;2023-07-16T09:06:43;24.20;70.60
1129;DHT22;553;51.038;7.216;2023-07-16T09:09:22;24.30;70.30
1129;DHT22;553;51.038;7.216;2023-07-16T09:11:49;24.20;69.90
1129;DHT22;553;51.038;7.216;2023-07-16T09:14:20;24.40;70.20
1129;DHT22;553;51.038;7.216;2023-07-16T09:16:53;24.50;69.10
1129;DHT22;553;51.038;7.216;2023-07-16T09:19:21;24.50;69.70
1129;DHT22;553;51.038;7.216;2023-07-16T09:21:49;24.70;69.30
1129;DHT22;553;51.038;7.216;2023-07-16T09:24:17;24.90;69.50
1129;DHT22;553;51.038;7.216;2023-07-16T09:26:51;24.80;69.20
1129;DHT22;553;51.038;7.216;2023-07-16T09:29:19;25.00;68.80
1129;DHT22;553;51.038;7.216;2023-07-16T09:32:12;25.10;67.80
1129;DHT22;553;51.038;7.216;2023-07-16T09:34:39;24.70;67.10
1129;DHT22;553;51.038;7.216;2023-07-16T09:37:05;24.50;68.40
1129;DHT22;553;51.038;7.216;2023-07-16T09:39:35;24.50;68.10
1129;DHT22;553;51.038;7.216;2023-07-16T09:42:03;24.60;68.90
1129;DHT22;553;51.038;7.216;2023-07-16T09:44:30;24.80;68.30
1129;DHT22;553;51.038;7.216;2023-07-16T09:46:57;24.90;67.60
1129;DHT22;553;51.038;7.216;2023-07-16T09:49:28;24.70;67.40
1129;DHT22;553;51.038;7.216;2023-07-16T09:51:57;24.60;67.60
1129;DHT22;553;51.038;7.216;2023-07-16T09:54:25;24.50;67.50
1129;DHT22;553;51.038;7.216;2023-07-16T09:56:56;24.30;67.90
1129;DHT22;553;51.038;7.216;2023-07-16T09:59:29;24.60;69.70
1129;DHT22;553;51.038;7.216;2023-07-16T10:01:57;24.70;68.20
1129;DHT22;553;51.038;7.216;2023-07-16T10:04:24;25.00;68.60
1129;DHT22;553;51.038;7.216;2023-07-16T10:06:58;25.30;66.40
1129;DHT22;553;51.038;7.216;2023-07-16T10:09:42;25.40;67.50
1129;DHT22;553;51.038;7.216;2023-07-16T10:12:18;25.60;68.60
1129;DHT22;553;51.038;7.216;2023-07-16T10:14:50;25.70;67.00
1129;DHT22;553;51.038;7.216;2023-07-16T10:17:19;25.50;67.60
1129;DHT22;553;51.038;7.216;2023-07-16T10:22:41;25.60;66.10
1129;DHT22;553;51.038;7.216;2023-07-16T10:27:49;25.70;68.50
1129;DHT22;553;51.038;7.216;2023-07-16T10:30:17;25.80;66.70
1129;DHT22;553;51.038;7.216;2023-07-16T10:32:44;26.00;67.10
1129;DHT22;553;51.038;7.216;2023-07-16T10:35:12;26.10;65.00
1129;DHT22;553;51.038;7.216;2023-07-16T10:37:39;25.90;65.10
1129;DHT22;553;51.038;7.216;2023-07-16T10:40:11;25.60;66.70
1129;DHT22;553;51.038;7.216;2023-07-16T10:42:41;25.60;66.40
1129;DHT22;553;51.038;7.216;2023-07-16T10:45:10;25.80;67.60
1129;DHT22;553;51.038;7.216;2023-07-16T10:47:38;25.90;67.40
1129;DHT22;553;51.038;7.216;2023-07-16T10:50:07;25.90;66.30
1129;DHT22;553;51.038;7.216;2023-07-16T10:52:35;25.80;66.00
1129;DHT22;553;51.038;7.216;2023-07-16T10:55:02;25.60;66.60
1129;DHT22;553;51.038;7.216;2023-07-16T10:57:29;25.30;66.40
1129;DHT22;553;51.038;7.216;2023-07-16T10:59:57;25.40;67.40
1129;DHT22;553;51.038;7.216;2023-07-16T11:02:25;25.40;67.50
1129;DHT22;553;51.038;7.216;2023-07-16T11:04:52;25.70;65.90
1129;DHT22;553;51.038;7.216;2023-07-16T11:07:21;25.60;65.80
1129;DHT22;553;51.038;7.216;2023-07-16T11:09:52;25.50;67.10
1129;DHT22;553;51.038;7.216;2023-07-16T11:12:21;25.30;68.00
1129;DHT22;553;51.038;7.216;2023-07-16T11:14:53;25.30;66.60
1129;DHT22;553;51.038;7.216;2023-07-16T11:17:21;25.60;66.50
1129;DHT22;553;51.038;7.216;2023-07-16T11:19:51;25.80;66.40
1129;DHT22;553;51.038;7.216;2023-07-16T11:22:18;25.70;65.10
1129;DHT22;553;51.038;7.216;2023-07-16T11:24:50;25.50;66.50
1129;DHT22;553;51.038;7.216;2023-07-16T11:27:20;25.30;65.40
1129;DHT22;553;51.038;7.216;2023-07-16T11:29:48;24.90;66.30
1129;DHT22;553;51.038;7.216;2023-07-16T11:32:32;25.10;67.80
1129;DHT22;553;51.038;7.216;2023-07-16T11:35:01;25.30;66.90
1129;DHT22;553;51.038;7.216;2023-07-16T11:37:30;25.50;67.50
1129;DHT22;553;51.038;7.216;2023-07-16T11:40:05;25.60;65.10
1129;DHT22;553;51.038;7.216;2023-07-16T11:42:37;25.60;65.10
1129;DHT22;553;51.038;7.216;2023-07-16T11:45:14;25.50;65.00
1129;DHT22;553;51.038;7.216;2023-07-16T11:47:41;25.40;65.10
1129;DHT22;553;51.038;7.216;2023-07-16T11:50:10;25.60;66.40
1129;DHT22;553;51.038;7.216;2023-07-16T11:52:38;25.60;66.90
1129;DHT22;553;51.038;7.216;2023-07-16T11:55:06;25.90;66.10
1129;DHT22;553;51.038;7.216;2023-07-16T11:57:33;25.70;64.80
1129;DHT22;553;51.038;7.216;2023-07-16T12:00:00;25.50;65.00
1129;DHT22;553;51.038;7.216;2023-07-16T12:02:26;25.60;65.00
1129;DHT22;553;51.038;7.216;2023-07-16T12:04:55;25.50;65.10
1129;DHT22;553;51.038;7.216;2023-07-16T12:07:36;25.40;65.10
1129;DHT22;553;51.038;7.216;2023-07-16T12:10:04;25.00;64.90
1129;DHT22;553;51.038;7.216;2023-07-16T12:12:32;25.10;66.10
1129;DHT22;553;51.038;7.216;2023-07-16T12:15:00;25.30;66.30
1129;DHT22;553;51.038;7.216;2023-07-16T12:17:26;25.30;64.70
1129;DHT22;553;51.038;7.216;2023-07-16T12:19:53;25.50;66.40
1129;DHT22;553;51.038;7.216;2023-07-16T12:22:20;25.70;64.40
1129;DHT22;553;51.038;7.216;2023-07-16T12:24:48;25.60;64.40
1129;DHT22;553;51.038;7.216;2023-07-16T12:27:15;25.40;64.70
1129;DHT22;553;51.038;7.216;2023-07-16T12:29:42;25.20;65.00
1129;DHT22;553;51.038;7.216;2023-07-16T12:32:10;25.30;64.90
1129;DHT22;553;51.038;7.216;2023-07-16T12:34:37;25.50;66.60
1129;DHT22;553;51.038;7.216;2023-07-16T12:37:04;25.40;65.30
1129;DHT22;553;51.038;7.216;2023-07-16T12:39:31;25.40;65.20
1129;DHT22;553;51.038;7.216;2023-07-16T12:41:58;25.50;65.90
1129;DHT22;553;51.038;7.216;2023-07-16T12:44:24;25.60;65.50
1129;DHT22;553;51.038;7.216;2023-07-16T12:46:51;25.70;64.00
1129;DHT22;553;51.038;7.216;2023-07-16T12:49:19;25.50;64.40
1129;DHT22;553;51.038;7.216;2023-07-16T12:51:46;25.40;64.90
1129;DHT22;553;51.038;7.216;2023-07-16T12:54:12;25.30;65.80
1129;DHT22;553;51.038;7.216;2023-07-16T12:56:39;25.20;65.30
1129;DHT22;553;51.038;7.216;2023-07-16T12:59:06;25.00;66.00
1129;DHT22;553;51.038;7.216;2023-07-16T13:01:33;25.20;66.20
1129;DHT22;553;51.038;7.216;2023-07-16T13:04:00;25.20;65.50
1129;DHT22;553;51.038;7.216;2023-07-16T13:06:27;25.20;66.60
1129;DHT22;553;51.038;7.216;2023-07-16T13:08:53;25.10;66.00
1129;DHT22;553;51.038;7.216;2023-07-16T13:11:21;25.20;65.20
1129;DHT22;553;51.038;7.216;2023-07-16T13:13:47;25.10;65.40
1129;DHT22;553;51.038;7.216;2023-07-16T13:16:14;25.20;65.90
1129;DHT22;553;51.038;7.216;2023-07-16T13:18:42;25.20;66.20
1129;DHT22;553;51.038;7.216;2023-07-16T13:21:08;25.30;66.20
1129;DHT22;553;51.038;7.216;2023-07-16T13:23:35;25.40;66.70
1129;DHT22;553;51.038;7.216;2023-07-16T13:26:02;25.40;65.20
1129;DHT22;553;51.038;7.216;2023-07-16T13:28:29;25.40;65.80
1129;DHT22;553;51.038;7.216;2023-07-16T13:30:56;25.40;66.50
1129;DHT22;553;51.038;7.216;2023-07-16T13:33:23;25.40;66.10
1129;DHT22;553;51.038;7.216;2023-07-16T13:35:49;25.30;64.90
1129;DHT22;553;51.038;7.216;2023-07-16T13:38:16;25.30;66.00
1129;DHT22;553;51.038;7.216;2023-07-16T13:40:43;25.30;65.70
1129;DHT22;553;51.038;7.216;2023-07-16T13:43:10;25.40;66.80
1129;DHT22;553;51.038;7.216;2023-07-16T13:45:38;25.50;66.10
1129;DHT22;553;51.038;7.216;2023-07-16T13:48:05;25.50;66.50
1129;DHT22;553;51.038;7.216;2023-07-16T13:50:32;25.50;65.40
1129;DHT22;553;51.038;7.216;2023-07-16T13:52:59;25.40;64.70
1129;DHT22;553;51.038;7.216;2023-07-16T13:55:28;25.30;65.50
1129;DHT22;553;51.038;7.216;2023-07-16T13:57:55;25.20;65.50
1129;DHT22;553;51.038;7.216;2023-07-16T14:00:22;25.20;66.30
1129;DHT22;553;51.038;7.216;2023-07-16T14:02:49;25.30;66.10
1129;DHT22;553;51.038;7.216;2023-07-16T14:05:16;25.40;66.20
1129;DHT22;553;51.038;7.216;2023-07-16T14:07:43;25.40;65.10
1129;DHT22;553;51.038;7.216;2023-07-16T14:10:10;25.30;65.40
1129;DHT22;553;51.038;7.216;2023-07-16T14:12:37;25.30;65.50
1129;DHT22;553;51.038;7.216;2023-07-16T14:15:04;25.30;66.30
1129;DHT22;553;51.038;7.216;2023-07-16T14:17:31;25.30;64.60
1129;DHT22;553;51.038;7.216;2023-07-16T14:19:58;25.20;65.20
1129;DHT22;553;51.038;7.216;2023-07-16T14:22:25;25.10;65.40
1129;DHT22;553;51.038;7.216;2023-07-16T14:24:54;25.10;66.00
1129;DHT22;553;51.038;7.216;2023-07-16T14:27:21;25.10;65.50
1129;DHT22;553;51.038;7.216;2023-07-16T14:29:49;25.10;65.80
1129;DHT22;553;51.038;7.216;2023-07-16T14:32:30;25.10;66.10
1129;DHT22;553;51.038;7.216;2023-07-16T14:34:58;25.10;66.40
1129;DHT22;553;51.038;7.216;2023-07-16T14:37:25;25.10;66.70
1129;DHT22;553;51.038;7.216;2023-07-16T14:39:52;25.10;66.10
1129;DHT22;553;51.038;7.216;2023-07-16T14:42:19;25.20;65.70
1129;DHT22;553;51.038;7.216;2023-07-16T14:44:46;25.30;66.00
1129;DHT22;553;51.038;7.216;2023-07-16T14:47:12;25.20;64.60
1129;DHT22;553;51.038;7.216;2023-07-16T14:49:39;25.20;65.30
1129;DHT22;553;51.038;7.216;2023-07-16T14:52:06;25.20;64.90
1129;DHT22;553;51.038;7.216;2023-07-16T14:54:33;25.30;65.90
1129;DHT22;553;51.038;7.216;2023-07-16T14:57:02;25.30;65.20
1129;DHT22;553;51.038;7.216;2023-07-16T14:59:29;25.40;64.40
1129;DHT22;553;51.038;7.216;2023-07-16T15:01:56;25.40;65.30
1129;DHT22;553;51.038;7.216;2023-07-16T15:04:23;25.50;66.00
1129;DHT22;553;51.038;7.216;2023-07-16T15:06:50;25.50;64.20
1129;DHT22;553;51.038;7.216;2023-07-16T15:09:17;25.50;65.10
1129;DHT22;553;51.038;7.216;2023-07-16T15:11:44;25.40;64.30
1129;DHT22;553;51.038;7.216;2023-07-16T15:14:11;25.40;63.90
1129;DHT22;553;51.038;7.216;2023-07-16T15:16:39;25.40;65.00
1129;DHT22;553;51.038;7.216;2023-07-16T15:19:06;25.50;63.60
1129;DHT22;553;51.038;7.216;2023-07-16T15:21:35;25.50;63.10
1129;DHT22;553;51.038;7.216;2023-07-16T15:24:05;25.40;64.00
1129;DHT22;553;51.038;7.216;2023-07-16T15:26:32;25.30;63.80
1129;DHT22;553;51.038;7.216;2023-07-16T15:28:59;25.30;64.70
1129;DHT22;553;51.038;7.216;2023-07-16T15:31:26;25.30;63.80
1129;DHT22;553;51.038;7.216;2023-07-16T15:33:56;25.30;65.00
1129;DHT22;553;51.038;7.216;2023-07-16T15:36:25;25.30;64.70
1129;DHT22;553;51.038;7.216;2023-07-16T15:38:52;25.40;64.40
1129;DHT22;553;51.038;7.216;2023-07-16T15:41:19;25.40;64.80
1129;DHT22;553;51.038;7.216;2023-07-16T15:43:47;25.30;64.80
1129;DHT22;553;51.038;7.216;2023-07-16T15:46:16;25.40;65.00
1129;DHT22;553;51.038;7.216;2023-07-16T15:48:45;25.40;65.30
1129;DHT22;553;51.038;7.216;2023-07-16T15:51:13;25.30;65.00
1129;DHT22;553;51.038;7.216;2023-07-16T15:53:40;25.30;65.40
1129;DHT22;553;51.038;7.216;2023-07-16T15:56:10;25.30;65.80
1129;DHT22;553;51.038;7.216;2023-07-16T15:58:37;25.40;66.40
1129;DHT22;553;51.038;7.216;2023-07-16T16:01:05;25.50;65.50
1129;DHT22;553;51.038;7.216;2023-07-16T16:03:33;25.50;64.90
1129;DHT22;553;51.038;7.216;2023-07-16T16:06:00;25.40;65.10
1129;DHT22;553;51.038;7.216;2023-07-16T16:08:26;25.30;65.50
1129;DHT22;553;51.038;7.216;2023-07-16T16:10:53;25.20;65.70
1129;DHT22;553;51.038;7.216;2023-07-16T16:13:22;25.20;66.30
1129;DHT22;553;51.038;7.216;2023-07-16T16:15:50;25.20;64.80
1129;DHT22;553;51.038;7.216;2023-07-16T16:18:17;25.10;65.10
1129;DHT22;553;51.038;7.216;2023-07-16T16:20:45;25.20;65.40
1129;DHT22;553;51.038;7.216;2023-07-16T16:23:13;25.30;65.70
1129;DHT22;553;51.038;7.216;2023-07-16T16:25:40;25.40;65.40
1129;DHT22;553;51.038;7.216;2023-07-16T16:28:08;25.40;65.90
1129;DHT22;553;51.038;7.216;2023-07-16T16:30:36;25.40;64.80
1129;DHT22;553;51.038;7.216;2023-07-16T16:33:03;25.30;64.60
1129;DHT22;553;51.038;7.216;2023-07-16T16:35:32;25.30;64.90